Terminal Aerodrome Forecast
Issued by NWS

Current Version | Previous Version | Graphics & Text | Print | Product List | Glossary On
Versions: 1 2 3 4 5 6 7 8 9 10 11 12 13 14 15 16
000
FTUS41 KILN 312338
TAFLCK
TAF
KLCK 312338Z 0100/0124 26012KT P6SM SCT050
     FM010200 25005KT P6SM FEW080
     FM011600 29008G18KT P6SM SCT060
     FM012300 28005KT P6SM SCT250=

USA.gov is the U.S. government's official web portal to all federal, state and local government web resources and services.